sensor_id;sensor_type;location;lat;lon;timestamp;temperature;humidity
8565;DHT22;4320;51.498;6.556;2023-05-10T00:01:11;14.70;1.00
8565;DHT22;4320;51.498;6.556;2023-05-10T00:03:37;14.70;1.00
8565;DHT22;4320;51.498;6.556;2023-05-10T00:06:02;14.70;1.00
8565;DHT22;4320;51.498;6.556;2023-05-10T00:08:28;14.70;1.00
8565;DHT22;4320;51.498;6.556;2023-05-10T00:10:54;14.70;1.00
8565;DHT22;4320;51.498;6.556;2023-05-10T00:13:19;14.70;1.00
8565;DHT22;4320;51.498;6.556;2023-05-10T00:15:45;14.60;1.00
8565;DHT22;4320;51.498;6.556;2023-05-10T00:18:10;14.70;1.00
8565;DHT22;4320;51.498;6.556;2023-05-10T00:20:36;14.70;1.00
8565;DHT22;4320;51.498;6.556;2023-05-10T00:23:02;14.70;1.00
8565;DHT22;4320;51.498;6.556;2023-05-10T00:25:27;14.70;1.00
8565;DHT22;4320;51.498;6.556;2023-05-10T00:27:53;14.70;1.00
8565;DHT22;4320;51.498;6.556;2023-05-10T00:30:20;14.70;1.00
8565;DHT22;4320;51.498;6.556;2023-05-10T00:32:46;14.80;1.00
8565;DHT22;4320;51.498;6.556;2023-05-10T00:35:13;14.70;1.00
8565;DHT22;4320;51.498;6.556;2023-05-10T00:37:39;14.70;1.00
8565;DHT22;4320;51.498;6.556;2023-05-10T00:40:05;14.70;1.00
8565;DHT22;4320;51.498;6.556;2023-05-10T00:42:31;14.70;1.00
8565;DHT22;4320;51.498;6.556;2023-05-10T00:44:57;14.70;1.00
8565;DHT22;4320;51.498;6.556;2023-05-10T00:47:23;14.70;1.00
8565;DHT22;4320;51.498;6.556;2023-05-10T00:49:49;14.70;1.00
8565;DHT22;4320;51.498;6.556;2023-05-10T00:52:15;14.60;1.00
8565;DHT22;4320;51.498;6.556;2023-05-10T00:54:41;14.70;1.00
8565;DHT22;4320;51.498;6.556;2023-05-10T00:57:07;14.70;1.00
8565;DHT22;4320;51.498;6.556;2023-05-10T00:59:33;14.70;1.00
8565;DHT22;4320;51.498;6.556;2023-05-10T01:01:58;14.70;1.00
8565;DHT22;4320;51.498;6.556;2023-05-10T01:04:24;14.60;1.00
8565;DHT22;4320;51.498;6.556;2023-05-10T01:06:53;14.60;1.00
8565;DHT22;4320;51.498;6.556;2023-05-10T01:09:20;14.60;1.00
8565;DHT22;4320;51.498;6.556;2023-05-10T01:11:47;14.60;1.00
8565;DHT22;4320;51.498;6.556;2023-05-10T01:14:14;14.60;1.00
8565;DHT22;4320;51.498;6.556;2023-05-10T01:16:41;14.70;1.00
8565;DHT22;4320;51.498;6.556;2023-05-10T01:19:17;14.70;1.00
8565;DHT22;4320;51.498;6.556;2023-05-10T01:22:01;14.70;1.00
8565;DHT22;4320;51.498;6.556;2023-05-10T01:35:43;14.60;1.00
8565;DHT22;4320;51.498;6.556;2023-05-10T01:38:30;14.60;1.00
8565;DHT22;4320;51.498;6.556;2023-05-10T01:41:03;14.60;1.00
8565;DHT22;4320;51.498;6.556;2023-05-10T01:43:41;14.60;1.00
8565;DHT22;4320;51.498;6.556;2023-05-10T01:46:14;14.70;1.00
8565;DHT22;4320;51.498;6.556;2023-05-10T01:49:02;14.80;1.00
8565;DHT22;4320;51.498;6.556;2023-05-10T01:51:38;14.80;1.00
8565;DHT22;4320;51.498;6.556;2023-05-10T01:54:05;14.80;1.00
8565;DHT22;4320;51.498;6.556;2023-05-10T01:56:33;14.90;1.00
8565;DHT22;4320;51.498;6.556;2023-05-10T01:59:01;14.90;1.00
8565;DHT22;4320;51.498;6.556;2023-05-10T02:01:31;14.80;1.00
8565;DHT22;4320;51.498;6.556;2023-05-10T02:03:59;14.90;1.00
8565;DHT22;4320;51.498;6.556;2023-05-10T02:06:26;14.90;1.00
8565;DHT22;4320;51.498;6.556;2023-05-10T02:08:52;14.90;1.00
8565;DHT22;4320;51.498;6.556;2023-05-10T02:11:19;14.90;1.00
8565;DHT22;4320;51.498;6.556;2023-05-10T02:13:48;14.90;1.00
8565;DHT22;4320;51.498;6.556;2023-05-10T02:16:14;14.90;1.00
8565;DHT22;4320;51.498;6.556;2023-05-10T02:18:41;14.80;1.00
8565;DHT22;4320;51.498;6.556;2023-05-10T02:21:08;14.80;1.00
8565;DHT22;4320;51.498;6.556;2023-05-10T02:23:34;14.90;1.00
8565;DHT22;4320;51.498;6.556;2023-05-10T02:26:01;14.90;1.00
8565;DHT22;4320;51.498;6.556;2023-05-10T02:28:28;14.90;1.00
8565;DHT22;4320;51.498;6.556;2023-05-10T02:30:55;14.90;1.00
8565;DHT22;4320;51.498;6.556;2023-05-10T02:33:21;14.90;1.00
8565;DHT22;4320;51.498;6.556;2023-05-10T02:35:47;14.90;1.00
8565;DHT22;4320;51.498;6.556;2023-05-10T02:38:14;14.90;1.00
8565;DHT22;4320;51.498;6.556;2023-05-10T02:40:42;14.90;1.00
8565;DHT22;4320;51.498;6.556;2023-05-10T02:43:12;14.90;1.00
8565;DHT22;4320;51.498;6.556;2023-05-10T02:45:39;14.90;1.00
8565;DHT22;4320;51.498;6.556;2023-05-10T02:48:05;14.90;1.00
8565;DHT22;4320;51.498;6.556;2023-05-10T02:50:33;14.90;1.00
8565;DHT22;4320;51.498;6.556;2023-05-10T02:53:09;14.90;1.00
8565;DHT22;4320;51.498;6.556;2023-05-10T02:55:38;14.90;1.00
8565;DHT22;4320;51.498;6.556;2023-05-10T02:58:06;14.90;1.00
8565;DHT22;4320;51.498;6.556;2023-05-10T03:00:31;14.90;1.00
8565;DHT22;4320;51.498;6.556;2023-05-10T03:02:57;14.90;1.00
8565;DHT22;4320;51.498;6.556;2023-05-10T03:05:23;15.00;1.00
8565;DHT22;4320;51.498;6.556;2023-05-10T03:07:49;15.00;1.00
8565;DHT22;4320;51.498;6.556;2023-05-10T03:10:16;15.00;1.00
8565;DHT22;4320;51.498;6.556;2023-05-10T03:13:07;15.00;1.00
8565;DHT22;4320;51.498;6.556;2023-05-10T03:16:15;15.00;1.00
8565;DHT22;4320;51.498;6.556;2023-05-10T03:21:13;15.00;1.00
8565;DHT22;4320;51.498;6.556;2023-05-10T03:23:45;15.00;1.00
8565;DHT22;4320;51.498;6.556;2023-05-10T03:26:23;15.00;1.00
8565;DHT22;4320;51.498;6.556;2023-05-10T03:28:49;15.00;1.00
8565;DHT22;4320;51.498;6.556;2023-05-10T03:31:17;15.00;1.00
8565;DHT22;4320;51.498;6.556;2023-05-10T03:33:49;15.00;1.00
8565;DHT22;4320;51.498;6.556;2023-05-10T03:36:15;15.00;1.00
8565;DHT22;4320;51.498;6.556;2023-05-10T03:38:41;15.00;1.00
8565;DHT22;4320;51.498;6.556;2023-05-10T03:41:07;15.00;1.00
8565;DHT22;4320;51.498;6.556;2023-05-10T03:43:33;14.90;1.00
8565;DHT22;4320;51.498;6.556;2023-05-10T03:45:58;14.80;1.00
8565;DHT22;4320;51.498;6.556;2023-05-10T03:48:24;14.90;1.00
8565;DHT22;4320;51.498;6.556;2023-05-10T03:50:49;14.90;1.00
8565;DHT22;4320;51.498;6.556;2023-05-10T03:53:15;14.80;1.00
8565;DHT22;4320;51.498;6.556;2023-05-10T03:55:41;14.80;1.00
8565;DHT22;4320;51.498;6.556;2023-05-10T03:58:06;14.90;1.00
8565;DHT22;4320;51.498;6.556;2023-05-10T04:00:35;14.90;1.00
8565;DHT22;4320;51.498;6.556;2023-05-10T04:03:01;14.90;1.00
8565;DHT22;4320;51.498;6.556;2023-05-10T04:05:26;14.90;1.00
8565;DHT22;4320;51.498;6.556;2023-05-10T04:07:52;14.90;1.00
8565;DHT22;4320;51.498;6.556;2023-05-10T04:10:18;14.80;1.00
8565;DHT22;4320;51.498;6.556;2023-05-10T04:12:43;14.90;1.00
8565;DHT22;4320;51.498;6.556;2023-05-10T04:15:09;14.90;1.00
8565;DHT22;4320;51.498;6.556;2023-05-10T04:17:35;14.80;1.00
8565;DHT22;4320;51.498;6.556;2023-05-10T04:20:00;14.90;1.00
8565;DHT22;4320;51.498;6.556;2023-05-10T04:22:26;14.90;1.00
8565;DHT22;4320;51.498;6.556;2023-05-10T04:24:53;14.80;1.00
8565;DHT22;4320;51.498;6.556;2023-05-10T04:27:18;14.80;1.00
8565;DHT22;4320;51.498;6.556;2023-05-10T04:29:44;14.90;1.00
8565;DHT22;4320;51.498;6.556;2023-05-10T04:32:09;14.90;1.00
8565;DHT22;4320;51.498;6.556;2023-05-10T04:34:36;14.90;1.00
8565;DHT22;4320;51.498;6.556;2023-05-10T04:37:02;14.80;1.00
8565;DHT22;4320;51.498;6.556;2023-05-10T04:39:27;14.80;1.00
8565;DHT22;4320;51.498;6.556;2023-05-10T04:41:53;14.90;1.00
8565;DHT22;4320;51.498;6.556;2023-05-10T04:44:18;14.90;1.00
8565;DHT22;4320;51.498;6.556;2023-05-10T04:46:44;14.80;1.00
8565;DHT22;4320;51.498;6.556;2023-05-10T04:49:09;14.80;1.00
8565;DHT22;4320;51.498;6.556;2023-05-10T04:51:35;14.90;1.00
8565;DHT22;4320;51.498;6.556;2023-05-10T04:54:01;14.90;1.00
8565;DHT22;4320;51.498;6.556;2023-05-10T04:56:26;14.80;1.00
8565;DHT22;4320;51.498;6.556;2023-05-10T04:58:52;14.80;1.00
8565;DHT22;4320;51.498;6.556;2023-05-10T05:01:17;14.90;1.00
8565;DHT22;4320;51.498;6.556;2023-05-10T05:03:43;14.80;1.00
8565;DHT22;4320;51.498;6.556;2023-05-10T05:06:09;14.90;1.00
8565;DHT22;4320;51.498;6.556;2023-05-10T05:08:34;14.90;1.00
8565;DHT22;4320;51.498;6.556;2023-05-10T05:11:00;14.90;1.00
8565;DHT22;4320;51.498;6.556;2023-05-10T05:13:26;14.90;1.00
8565;DHT22;4320;51.498;6.556;2023-05-10T05:15:51;14.90;1.00
8565;DHT22;4320;51.498;6.556;2023-05-10T05:18:17;14.90;1.00
8565;DHT22;4320;51.498;6.556;2023-05-10T05:20:42;15.00;1.00
8565;DHT22;4320;51.498;6.556;2023-05-10T05:23:08;15.00;1.00
8565;DHT22;4320;51.498;6.556;2023-05-10T05:25:33;14.90;1.00
8565;DHT22;4320;51.498;6.556;2023-05-10T05:27:59;15.00;1.00
8565;DHT22;4320;51.498;6.556;2023-05-10T05:30:25;15.00;1.00
8565;DHT22;4320;51.498;6.556;2023-05-10T05:32:50;15.00;1.00
8565;DHT22;4320;51.498;6.556;2023-05-10T05:35:16;15.00;1.00
8565;DHT22;4320;51.498;6.556;2023-05-10T05:37:42;15.00;1.00
8565;DHT22;4320;51.498;6.556;2023-05-10T05:40:08;15.00;1.00
8565;DHT22;4320;51.498;6.556;2023-05-10T05:42:33;15.00;1.00
8565;DHT22;4320;51.498;6.556;2023-05-10T05:44:59;15.00;1.00
8565;DHT22;4320;51.498;6.556;2023-05-10T05:47:25;15.10;1.00
8565;DHT22;4320;51.498;6.556;2023-05-10T05:49:50;15.10;1.00
8565;DHT22;4320;51.498;6.556;2023-05-10T05:52:16;15.20;1.00
8565;DHT22;4320;51.498;6.556;2023-05-10T05:54:42;15.20;1.00
8565;DHT22;4320;51.498;6.556;2023-05-10T05:57:07;15.20;1.00
8565;DHT22;4320;51.498;6.556;2023-05-10T05:59:33;15.20;1.00
8565;DHT22;4320;51.498;6.556;2023-05-10T06:01:58;15.20;1.00
8565;DHT22;4320;51.498;6.556;2023-05-10T06:04:24;15.30;1.00
8565;DHT22;4320;51.498;6.556;2023-05-10T06:06:50;15.30;1.00
8565;DHT22;4320;51.498;6.556;2023-05-10T06:09:15;15.30;1.00
8565;DHT22;4320;51.498;6.556;2023-05-10T06:11:41;15.30;1.00
8565;DHT22;4320;51.498;6.556;2023-05-10T06:14:07;15.30;1.00
8565;DHT22;4320;51.498;6.556;2023-05-10T06:16:34;15.30;1.00
8565;DHT22;4320;51.498;6.556;2023-05-10T06:19:00;15.30;1.00
8565;DHT22;4320;51.498;6.556;2023-05-10T06:21:25;15.30;1.00
8565;DHT22;4320;51.498;6.556;2023-05-10T06:23:51;15.30;1.00
8565;DHT22;4320;51.498;6.556;2023-05-10T06:26:17;15.30;1.00
8565;DHT22;4320;51.498;6.556;2023-05-10T06:28:42;15.30;1.00
8565;DHT22;4320;51.498;6.556;2023-05-10T06:31:08;15.30;1.00
8565;DHT22;4320;51.498;6.556;2023-05-10T06:33:34;15.30;1.00
8565;DHT22;4320;51.498;6.556;2023-05-10T06:35:59;15.40;1.00
8565;DHT22;4320;51.498;6.556;2023-05-10T06:38:25;15.40;1.00
8565;DHT22;4320;51.498;6.556;2023-05-10T06:40:51;15.40;1.00
8565;DHT22;4320;51.498;6.556;2023-05-10T06:43:17;15.50;1.00
8565;DHT22;4320;51.498;6.556;2023-05-10T06:45:42;15.40;1.00
8565;DHT22;4320;51.498;6.556;2023-05-10T06:48:08;15.40;1.00
8565;DHT22;4320;51.498;6.556;2023-05-10T06:50:34;15.40;1.00
8565;DHT22;4320;51.498;6.556;2023-05-10T06:53:00;15.50;1.00
8565;DHT22;4320;51.498;6.556;2023-05-10T06:55:27;15.40;1.00
8565;DHT22;4320;51.498;6.556;2023-05-10T06:57:53;15.50;1.00
8565;DHT22;4320;51.498;6.556;2023-05-10T07:00:19;15.50;1.00
8565;DHT22;4320;51.498;6.556;2023-05-10T07:02:45;15.60;1.00
8565;DHT22;4320;51.498;6.556;2023-05-10T07:05:11;15.60;1.00
8565;DHT22;4320;51.498;6.556;2023-05-10T07:07:37;15.60;1.00
8565;DHT22;4320;51.498;6.556;2023-05-10T07:10:03;15.60;1.00
8565;DHT22;4320;51.498;6.556;2023-05-10T07:12:29;15.60;1.00
8565;DHT22;4320;51.498;6.556;2023-05-10T07:14:54;15.60;1.00
8565;DHT22;4320;51.498;6.556;2023-05-10T07:17:20;15.70;1.00
8565;DHT22;4320;51.498;6.556;2023-05-10T07:19:46;15.70;1.00
8565;DHT22;4320;51.498;6.556;2023-05-10T07:22:11;15.70;1.00
8565;DHT22;4320;51.498;6.556;2023-05-10T07:24:38;15.70;1.00
8565;DHT22;4320;51.498;6.556;2023-05-10T07:27:03;15.80;1.00
8565;DHT22;4320;51.498;6.556;2023-05-10T07:29:29;15.70;1.00
8565;DHT22;4320;51.498;6.556;2023-05-10T07:31:55;15.70;1.00
8565;DHT22;4320;51.498;6.556;2023-05-10T07:34:20;15.80;1.00
8565;DHT22;4320;51.498;6.556;2023-05-10T07:36:46;15.90;1.00
8565;DHT22;4320;51.498;6.556;2023-05-10T07:39:12;15.90;1.00
8565;DHT22;4320;51.498;6.556;2023-05-10T07:41:38;15.80;1.00
8565;DHT22;4320;51.498;6.556;2023-05-10T07:44:04;15.80;1.00
8565;DHT22;4320;51.498;6.556;2023-05-10T07:46:30;15.80;1.00
8565;DHT22;4320;51.498;6.556;2023-05-10T07:48:55;15.70;1.00
8565;DHT22;4320;51.498;6.556;2023-05-10T07:51:21;15.70;1.00
8565;DHT22;4320;51.498;6.556;2023-05-10T07:53:47;15.60;99.90
8565;DHT22;4320;51.498;6.556;2023-05-10T07:56:28;15.50;99.90
8565;DHT22;4320;51.498;6.556;2023-05-10T07:58:58;15.60;99.90
8565;DHT22;4320;51.498;6.556;2023-05-10T08:01:25;15.50;99.90
8565;DHT22;4320;51.498;6.556;2023-05-10T08:03:51;15.50;1.00
8565;DHT22;4320;51.498;6.556;2023-05-10T08:06:19;15.50;1.00
8565;DHT22;4320;51.498;6.556;2023-05-10T08:08:46;15.60;99.90
8565;DHT22;4320;51.498;6.556;2023-05-10T08:11:15;15.80;99.90
8565;DHT22;4320;51.498;6.556;2023-05-10T08:13:41;16.40;99.90
8565;DHT22;4320;51.498;6.556;2023-05-10T08:16:07;17.10;99.90
8565;DHT22;4320;51.498;6.556;2023-05-10T08:18:32;17.60;99.90
8565;DHT22;4320;51.498;6.556;2023-05-10T08:20:58;17.70;99.90
8565;DHT22;4320;51.498;6.556;2023-05-10T08:23:23;17.90;99.90
8565;DHT22;4320;51.498;6.556;2023-05-10T08:25:49;18.30;99.90
8565;DHT22;4320;51.498;6.556;2023-05-10T08:28:15;18.50;99.90
8565;DHT22;4320;51.498;6.556;2023-05-10T08:30:40;18.30;99.90
8565;DHT22;4320;51.498;6.556;2023-05-10T08:33:06;18.20;99.90
8565;DHT22;4320;51.498;6.556;2023-05-10T08:35:31;18.10;99.90
8565;DHT22;4320;51.498;6.556;2023-05-10T08:37:58;18.10;99.90
8565;DHT22;4320;51.498;6.556;2023-05-10T08:40:24;18.10;99.90
8565;DHT22;4320;51.498;6.556;2023-05-10T08:42:55;18.10;99.90
8565;DHT22;4320;51.498;6.556;2023-05-10T08:45:23;18.10;99.90
8565;DHT22;4320;51.498;6.556;2023-05-10T08:47:50;17.90;99.90
8565;DHT22;4320;51.498;6.556;2023-05-10T08:50:19;18.20;99.90
8565;DHT22;4320;51.498;6.556;2023-05-10T08:52:45;18.40;99.90
8565;DHT22;4320;51.498;6.556;2023-05-10T08:55:13;18.40;99.90
8565;DHT22;4320;51.498;6.556;2023-05-10T08:57:39;18.30;99.90
8565;DHT22;4320;51.498;6.556;2023-05-10T09:00:05;18.10;99.90
8565;DHT22;4320;51.498;6.556;2023-05-10T09:02:31;18.00;99.90
8565;DHT22;4320;51.498;6.556;2023-05-10T09:04:57;17.90;99.90
8565;DHT22;4320;51.498;6.556;2023-05-10T09:07:22;17.60;99.90
8565;DHT22;4320;51.498;6.556;2023-05-10T09:09:48;17.30;99.90
8565;DHT22;4320;51.498;6.556;2023-05-10T09:12:14;16.90;99.90
8565;DHT22;4320;51.498;6.556;2023-05-10T09:14:42;16.70;99.90
8565;DHT22;4320;51.498;6.556;2023-05-10T09:17:09;16.60;99.90
8565;DHT22;4320;51.498;6.556;2023-05-10T09:19:35;16.50;99.90
8565;DHT22;4320;51.498;6.556;2023-05-10T09:22:01;16.40;99.90
8565;DHT22;4320;51.498;6.556;2023-05-10T09:24:29;16.30;99.90
8565;DHT22;4320;51.498;6.556;2023-05-10T09:26:57;16.30;99.90
8565;DHT22;4320;51.498;6.556;2023-05-10T09:29:23;16.30;99.90
8565;DHT22;4320;51.498;6.556;2023-05-10T09:31:50;16.20;99.90
8565;DHT22;4320;51.498;6.556;2023-05-10T09:34:28;16.00;99.90
8565;DHT22;4320;51.498;6.556;2023-05-10T09:36:55;16.00;99.90
8565;DHT22;4320;51.498;6.556;2023-05-10T09:39:30;16.10;99.90
8565;DHT22;4320;51.498;6.556;2023-05-10T09:41:57;15.90;99.90
8565;DHT22;4320;51.498;6.556;2023-05-10T09:44:22;16.00;99.90
8565;DHT22;4320;51.498;6.556;2023-05-10T09:46:49;16.00;99.90
8565;DHT22;4320;51.498;6.556;2023-05-10T09:49:16;16.00;99.90
8565;DHT22;4320;51.498;6.556;2023-05-10T09:51:41;16.00;99.90
8565;DHT22;4320;51.498;6.556;2023-05-10T09:54:15;16.20;99.90
8565;DHT22;4320;51.498;6.556;2023-05-10T09:56:41;16.20;99.90
8565;DHT22;4320;51.498;6.556;2023-05-10T09:59:09;16.30;99.90
8565;DHT22;4320;51.498;6.556;2023-05-10T10:01:35;16.20;99.90
8565;DHT22;4320;51.498;6.556;2023-05-10T10:04:06;16.10;99.90
8565;DHT22;4320;51.498;6.556;2023-05-10T10:06:38;16.20;99.90
8565;DHT22;4320;51.498;6.556;2023-05-10T10:09:08;16.30;99.90
8565;DHT22;4320;51.498;6.556;2023-05-10T10:11:35;16.20;99.90
8565;DHT22;4320;51.498;6.556;2023-05-10T10:14:01;16.30;99.90
8565;DHT22;4320;51.498;6.556;2023-05-10T10:16:29;16.30;99.90
8565;DHT22;4320;51.498;6.556;2023-05-10T10:18:55;16.40;99.90
8565;DHT22;4320;51.498;6.556;2023-05-10T10:21:22;16.30;99.90
8565;DHT22;4320;51.498;6.556;2023-05-10T10:23:47;16.30;99.90
8565;DHT22;4320;51.498;6.556;2023-05-10T10:26:14;16.50;99.90
8565;DHT22;4320;51.498;6.556;2023-05-10T10:31:32;16.60;99.90
8565;DHT22;4320;51.498;6.556;2023-05-10T10:34:07;16.60;99.90
8565;DHT22;4320;51.498;6.556;2023-05-10T10:36:43;16.60;99.90
8565;DHT22;4320;51.498;6.556;2023-05-10T10:39:10;16.60;99.90
8565;DHT22;4320;51.498;6.556;2023-05-10T10:41:39;16.50;99.90
8565;DHT22;4320;51.498;6.556;2023-05-10T10:44:25;16.50;99.90
8565;DHT22;4320;51.498;6.556;2023-05-10T10:47:06;16.40;99.90
8565;DHT22;4320;51.498;6.556;2023-05-10T10:49:43;16.40;99.90
8565;DHT22;4320;51.498;6.556;2023-05-10T10:54:51;16.20;99.90
8565;DHT22;4320;51.498;6.556;2023-05-10T10:57:18;16.30;99.90
8565;DHT22;4320;51.498;6.556;2023-05-10T10:59:44;16.40;99.90
8565;DHT22;4320;51.498;6.556;2023-05-10T11:02:34;16.40;99.90
8565;DHT22;4320;51.498;6.556;2023-05-10T11:05:21;16.50;99.90
8565;DHT22;4320;51.498;6.556;2023-05-10T11:07:57;16.60;99.90
8565;DHT22;4320;51.498;6.556;2023-05-10T11:10:24;16.70;99.90
8565;DHT22;4320;51.498;6.556;2023-05-10T11:13:05;16.80;99.90
8565;DHT22;4320;51.498;6.556;2023-05-10T11:15:31;16.70;99.90
8565;DHT22;4320;51.498;6.556;2023-05-10T11:17:57;16.60;99.90
8565;DHT22;4320;51.498;6.556;2023-05-10T11:20:23;16.40;99.90
8565;DHT22;4320;51.498;6.556;2023-05-10T11:22:59;16.40;99.90
8565;DHT22;4320;51.498;6.556;2023-05-10T11:25:44;16.40;99.90
8565;DHT22;4320;51.498;6.556;2023-05-10T11:28:13;16.50;99.90
8565;DHT22;4320;51.498;6.556;2023-05-10T11:30:39;16.50;99.90
8565;DHT22;4320;51.498;6.556;2023-05-10T11:33:06;16.60;99.90
8565;DHT22;4320;51.498;6.556;2023-05-10T11:35:39;16.60;99.90
8565;DHT22;4320;51.498;6.556;2023-05-10T11:38:06;16.70;99.90
8565;DHT22;4320;51.498;6.556;2023-05-10T11:40:32;16.80;99.90
8565;DHT22;4320;51.498;6.556;2023-05-10T11:42:58;16.80;99.90
8565;DHT22;4320;51.498;6.556;2023-05-10T11:45:24;16.90;99.90
8565;DHT22;4320;51.498;6.556;2023-05-10T11:47:50;17.10;99.90
8565;DHT22;4320;51.498;6.556;2023-05-10T11:50:17;17.10;99.90
8565;DHT22;4320;51.498;6.556;2023-05-10T11:52:43;17.00;99.90
8565;DHT22;4320;51.498;6.556;2023-05-10T11:55:08;17.00;99.90
8565;DHT22;4320;51.498;6.556;2023-05-10T11:57:35;17.20;99.90
8565;DHT22;4320;51.498;6.556;2023-05-10T12:00:01;17.20;99.90
8565;DHT22;4320;51.498;6.556;2023-05-10T12:02:29;17.40;99.90
8565;DHT22;4320;51.498;6.556;2023-05-10T12:04:55;17.40;99.90
8565;DHT22;4320;51.498;6.556;2023-05-10T12:07:21;17.50;99.90
8565;DHT22;4320;51.498;6.556;2023-05-10T12:10:07;17.60;99.90
8565;DHT22;4320;51.498;6.556;2023-05-10T12:12:41;17.70;99.90
8565;DHT22;4320;51.498;6.556;2023-05-10T12:15:12;17.80;99.90
8565;DHT22;4320;51.498;6.556;2023-05-10T12:17:39;17.90;99.90
8565;DHT22;4320;51.498;6.556;2023-05-10T12:20:19;18.00;99.90
8565;DHT22;4320;51.498;6.556;2023-05-10T12:22:53;18.20;99.90
8565;DHT22;4320;51.498;6.556;2023-05-10T12:25:20;18.40;99.90
8565;DHT22;4320;51.498;6.556;2023-05-10T12:27:54;18.60;99.90
8565;DHT22;4320;51.498;6.556;2023-05-10T12:30:26;18.80;99.90
8565;DHT22;4320;51.498;6.556;2023-05-10T12:32:52;18.90;99.90
8565;DHT22;4320;51.498;6.556;2023-05-10T12:35:19;19.00;99.90
8565;DHT22;4320;51.498;6.556;2023-05-10T12:37:50;19.00;99.90
8565;DHT22;4320;51.498;6.556;2023-05-10T12:40:16;19.10;99.90
8565;DHT22;4320;51.498;6.556;2023-05-10T12:42:42;19.00;99.90
8565;DHT22;4320;51.498;6.556;2023-05-10T12:45:09;19.10;99.90
8565;DHT22;4320;51.498;6.556;2023-05-10T12:47:35;19.30;99.90
8565;DHT22;4320;51.498;6.556;2023-05-10T12:50:01;19.40;99.90
8565;DHT22;4320;51.498;6.556;2023-05-10T12:52:28;19.40;99.90
8565;DHT22;4320;51.498;6.556;2023-05-10T12:54:54;19.20;99.90
8565;DHT22;4320;51.498;6.556;2023-05-10T12:57:22;19.10;99.90
8565;DHT22;4320;51.498;6.556;2023-05-10T12:59:48;19.10;99.90
8565;DHT22;4320;51.498;6.556;2023-05-10T13:02:15;19.10;99.90
8565;DHT22;4320;51.498;6.556;2023-05-10T13:04:44;19.20;99.90
8565;DHT22;4320;51.498;6.556;2023-05-10T13:07:09;19.40;99.90
8565;DHT22;4320;51.498;6.556;2023-05-10T13:09:35;19.40;99.90
8565;DHT22;4320;51.498;6.556;2023-05-10T13:12:01;19.40;99.90
8565;DHT22;4320;51.498;6.556;2023-05-10T13:14:27;19.40;99.90
8565;DHT22;4320;51.498;6.556;2023-05-10T13:16:53;19.30;99.90
8565;DHT22;4320;51.498;6.556;2023-05-10T13:19:19;19.30;99.90
8565;DHT22;4320;51.498;6.556;2023-05-10T13:21:45;19.40;99.90
8565;DHT22;4320;51.498;6.556;2023-05-10T13:24:11;19.50;99.90
8565;DHT22;4320;51.498;6.556;2023-05-10T13:26:39;19.80;99.90
8565;DHT22;4320;51.498;6.556;2023-05-10T13:29:05;20.00;99.90
8565;DHT22;4320;51.498;6.556;2023-05-10T13:31:31;20.10;99.90
8565;DHT22;4320;51.498;6.556;2023-05-10T13:33:56;20.30;99.90
8565;DHT22;4320;51.498;6.556;2023-05-10T13:36:22;20.50;99.90
8565;DHT22;4320;51.498;6.556;2023-05-10T13:38:48;20.80;99.90
8565;DHT22;4320;51.498;6.556;2023-05-10T13:41:13;20.80;94.30
8565;DHT22;4320;51.498;6.556;2023-05-10T13:43:39;20.70;95.50
8565;DHT22;4320;51.498;6.556;2023-05-10T13:46:05;20.60;95.50
8565;DHT22;4320;51.498;6.556;2023-05-10T13:48:31;20.50;93.50
8565;DHT22;4320;51.498;6.556;2023-05-10T13:50:56;20.40;94.80
8565;DHT22;4320;51.498;6.556;2023-05-10T13:53:22;20.30;96.00
8565;DHT22;4320;51.498;6.556;2023-05-10T13:55:48;20.10;90.50
8565;DHT22;4320;51.498;6.556;2023-05-10T13:58:14;19.90;93.40
8565;DHT22;4320;51.498;6.556;2023-05-10T14:00:39;20.10;95.00
8565;DHT22;4320;51.498;6.556;2023-05-10T14:03:05;20.20;92.00
8565;DHT22;4320;51.498;6.556;2023-05-10T14:05:32;20.20;90.70
8565;DHT22;4320;51.498;6.556;2023-05-10T14:07:58;20.20;96.20
8565;DHT22;4320;51.498;6.556;2023-05-10T14:10:23;20.20;93.40
8565;DHT22;4320;51.498;6.556;2023-05-10T14:12:50;20.00;94.60
8565;DHT22;4320;51.498;6.556;2023-05-10T14:15:15;20.00;95.30
8565;DHT22;4320;51.498;6.556;2023-05-10T14:17:41;19.80;93.50
8565;DHT22;4320;51.498;6.556;2023-05-10T14:20:07;19.70;94.90
8565;DHT22;4320;51.498;6.556;2023-05-10T14:22:33;19.60;93.60
8565;DHT22;4320;51.498;6.556;2023-05-10T14:24:59;19.60;99.50
8565;DHT22;4320;51.498;6.556;2023-05-10T14:27:25;19.70;99.90
8565;DHT22;4320;51.498;6.556;2023-05-10T14:29:51;19.70;99.90
8565;DHT22;4320;51.498;6.556;2023-05-10T14:32:17;19.50;99.90
8565;DHT22;4320;51.498;6.556;2023-05-10T14:34:42;19.50;99.20
8565;DHT22;4320;51.498;6.556;2023-05-10T14:37:10;19.50;96.80
8565;DHT22;4320;51.498;6.556;2023-05-10T14:39:36;19.40;98.60
8565;DHT22;4320;51.498;6.556;2023-05-10T14:42:14;19.20;99.90
8565;DHT22;4320;51.498;6.556;2023-05-10T14:45:03;19.10;99.90
8565;DHT22;4320;51.498;6.556;2023-05-10T14:47:29;18.90;99.90
8565;DHT22;4320;51.498;6.556;2023-05-10T14:49:55;18.80;94.20
8565;DHT22;4320;51.498;6.556;2023-05-10T14:52:21;18.40;91.30
8565;DHT22;4320;51.498;6.556;2023-05-10T14:54:46;18.30;94.30
8565;DHT22;4320;51.498;6.556;2023-05-10T14:57:12;18.20;99.90
8565;DHT22;4320;51.498;6.556;2023-05-10T14:59:38;17.80;99.90
8565;DHT22;4320;51.498;6.556;2023-05-10T15:02:03;17.50;99.90
8565;DHT22;4320;51.498;6.556;2023-05-10T15:04:29;17.30;99.90
8565;DHT22;4320;51.498;6.556;2023-05-10T15:06:55;17.10;99.90
8565;DHT22;4320;51.498;6.556;2023-05-10T15:09:24;16.80;99.90
8565;DHT22;4320;51.498;6.556;2023-05-10T15:11:50;16.70;99.90
8565;DHT22;4320;51.498;6.556;2023-05-10T15:14:16;16.60;99.90
8565;DHT22;4320;51.498;6.556;2023-05-10T15:16:41;16.40;99.90
8565;DHT22;4320;51.498;6.556;2023-05-10T15:19:07;16.40;99.90
8565;DHT22;4320;51.498;6.556;2023-05-10T15:21:32;16.30;99.90
8565;DHT22;4320;51.498;6.556;2023-05-10T15:24:04;16.20;99.90
8565;DHT22;4320;51.498;6.556;2023-05-10T15:26:30;16.10;99.90
8565;DHT22;4320;51.498;6.556;2023-05-10T15:28:56;16.20;99.90
8565;DHT22;4320;51.498;6.556;2023-05-10T15:31:21;16.10;99.90
8565;DHT22;4320;51.498;6.556;2023-05-10T15:33:47;16.20;99.90
8565;DHT22;4320;51.498;6.556;2023-05-10T15:36:13;16.20;99.90
8565;DHT22;4320;51.498;6.556;2023-05-10T15:38:38;16.20;99.90
8565;DHT22;4320;51.498;6.556;2023-05-10T15:41:04;16.20;99.90
8565;DHT22;4320;51.498;6.556;2023-05-10T15:43:30;16.30;99.90
8565;DHT22;4320;51.498;6.556;2023-05-10T15:45:55;16.20;99.90
8565;DHT22;4320;51.498;6.556;2023-05-10T15:48:21;16.10;99.90
8565;DHT22;4320;51.498;6.556;2023-05-10T15:50:47;16.10;99.90
8565;DHT22;4320;51.498;6.556;2023-05-10T15:53:12;16.10;99.90
8565;DHT22;4320;51.498;6.556;2023-05-10T15:55:38;16.10;99.90
8565;DHT22;4320;51.498;6.556;2023-05-10T15:58:04;16.00;1.00
8565;DHT22;4320;51.498;6.556;2023-05-10T16:00:30;16.10;1.00
8565;DHT22;4320;51.498;6.556;2023-05-10T16:02:55;16.10;1.00
8565;DHT22;4320;51.498;6.556;2023-05-10T16:05:21;16.20;1.00
8565;DHT22;4320;51.498;6.556;2023-05-10T16:07:47;16.10;1.00
8565;DHT22;4320;51.498;6.556;2023-05-10T16:10:13;16.00;1.00
8565;DHT22;4320;51.498;6.556;2023-05-10T16:12:39;16.00;1.00
8565;DHT22;4320;51.498;6.556;2023-05-10T16:15:05;16.00;1.00
8565;DHT22;4320;51.498;6.556;2023-05-10T16:17:31;16.00;1.00
8565;DHT22;4320;51.498;6.556;2023-05-10T16:19:57;16.00;1.00
8565;DHT22;4320;51.498;6.556;2023-05-10T16:22:24;16.10;1.00
8565;DHT22;4320;51.498;6.556;2023-05-10T16:24:51;16.10;99.90
8565;DHT22;4320;51.498;6.556;2023-05-10T16:27:18;16.10;99.90
8565;DHT22;4320;51.498;6.556;2023-05-10T16:29:44;16.10;99.90